Osg Courageous — WDF7122 — position and weather

sailwx.info

Track history (hours):
 
Tides and Currents Weather Stations Pressure Air Temp Water Temp Dewpoint Dewpoint Depression Visibility Wind Speed Wind Dir Waves Ship Positions

Osg Courageous

Owner: OSG Ship Management, Inc, Tampa, FL. More information available from US FCC via Universal Licensing System and Coast Guard Vessel Documentation Center.

Last reported at 2016-Jun-24 22:33 UTC. Time now 2016-Jun-25 03:33 UTC.
Position N 30°59' W 080°34'.

Length 187 m; draft 7 m.

Type: Tanker. MMSI: 367481310.

Date/timePositionNaut miles runAvg speedWind from/ knotsBaromVisibWave heightAir tempDewpointWater temp
2016-Jun-24 22:33N 30°59' W 080°34'11 9.8
2016-Jun-24 21:27N 31°09' W 080°28'19 9.8
2016-Jun-24 19:33N 31°25' W 080°18'1510.6
2016-Jun-24 18:10N 31°38' W 080°09'610.7
2016-Jun-24 17:33N 31°43' W 080°05'1110.5
2016-Jun-24 16:32N 31°52' W 079°58'51 1.6
2016-Jun-23 09:30N 32°42' W 079°47'9 9.9
2016-Jun-23 08:33N 32°39' W 079°36'1210.2
2016-Jun-23 07:24N 32°43' W 079°23'1910.4
2016-Jun-23 05:32N 32°52' W 079°03'  
2016-Jun-20 05:33N 37°02' W 074°47'11210.2
2016-Jun-19 18:32N 38°53' W 075°07'8 7.6
2016-Jun-19 17:31N 38°59' W 075°13'0 0.0
2016-Jun-19 16:31N 38°59' W 075°13'0 0.1
2016-Jun-19 13:28N 38°60' W 075°13'0 0.0
2016-Jun-19 12:13N 38°60' W 075°13'0 0.0
2016-Jun-19 11:31N 38°60' W 075°13'0 0.0
2016-Jun-19 10:28N 38°60' W 075°13'0 0.1
2016-Jun-19 09:31N 38°60' W 075°13'0 0.1
2016-Jun-19 08:31N 38°59' W 075°13'0 0.1
2016-Jun-19 07:31N 38°59' W 075°13'0 0.0
2016-Jun-19 06:28N 38°59' W 075°13'0 0.0
2016-Jun-19 05:31N 38°59' W 075°13'0 0.0
2016-Jun-19 04:31N 38°59' W 075°13'0 0.0
2016-Jun-19 03:31N 38°59' W 075°13'0 0.2
2016-Jun-19 02:31N 38°60' W 075°13'0 0.1
2016-Jun-19 01:31N 38°60' W 075°13'0 0.0
2016-Jun-19 00:28N 38°60' W 075°13'0 0.0
2016-Jun-18 23:31N 38°60' W 075°13'0 0.0
2016-Jun-18 22:28N 38°60' W 075°13'0 0.0
2016-Jun-18 21:25N 38°60' W 075°13'0 0.0
2016-Jun-18 20:31N 38°60' W 075°13'0 0.2
2016-Jun-18 19:28N 38°59' W 075°13'0 0.0
2016-Jun-18 18:31N 38°59' W 075°13'0 0.0
2016-Jun-18 17:34N 38°59' W 075°13'0 0.0
2016-Jun-18 16:31N 38°59' W 075°13'0 0.0
2016-Jun-18 15:31N 38°59' W 075°13'0 0.1
2016-Jun-18 14:31N 38°59' W 075°13'0 0.1
2016-Jun-18 13:31N 38°60' W 075°13'0 0.0
2016-Jun-18 12:34N 38°60' W 075°13'0 0.0
2016-Jun-18 11:33N 38°60' W 075°13'0 0.0
2016-Jun-18 10:31N 38°60' W 075°13'0 0.1
2016-Jun-18 09:31N 38°60' W 075°13'0 0.1
2016-Jun-18 08:09N 38°59' W 075°13'0 0.0
2016-Jun-18 07:33N 38°59' W 075°13'0 0.0
2016-Jun-18 06:31N 38°59' W 075°13'4 3.8
2016-Jun-18 05:33N 38°56' W 075°11'9 8.7
2016-Jun-18 04:34N 38°49' W 075°04'8 7.9
2016-Jun-18 03:33N 38°48' W 074°54'9 9.5
2016-Jun-18 02:34N 38°48' W 074°42'9 9.2
2016-Jun-18 01:34N 38°52' W 074°31'1010.4
2016-Jun-18 00:33N 39°01' W 074°23'2110.4
2016-Jun-17 22:30N 39°18' W 074°08'1110.4
2016-Jun-17 21:24N 39°29' W 074°02'910.5
2016-Jun-17 20:34N 39°37' W 073°58'1010.2
2016-Jun-17 19:34N 39°47' W 073°53'1110.3
2016-Jun-17 18:31N 39°57' W 073°52'2410.3
2016-Jun-17 16:14N 40°21' W 073°50'6 8.6
2016-Jun-17 15:33N 40°24' W 073°56'0 0.0
2016-Jun-17 11:16N 40°24' W 073°56'0 0.0
2016-Jun-17 10:16N 40°24' W 073°56'0 0.0
2016-Jun-17 09:22N 40°24' W 073°56'0 0.0
2016-Jun-17 08:31N 40°24' W 073°56'0 0.0
2016-Jun-17 06:19N 40°24' W 073°56'0 0.0
2016-Jun-17 05:31N 40°24' W 073°56'0 0.0
2016-Jun-17 04:16N 40°24' W 073°56'0 0.0
2016-Jun-16 23:33N 40°24' W 073°56'5 1.9
2016-Jun-16 21:09N 40°29' W 073°54'5 8.7
2016-Jun-16 20:33N 40°31' W 074°00'8 7.7
2016-Jun-16 19:33N 40°39' W 074°03'0 0.2
2016-Jun-16 18:32N 40°39' W 074°03'0 0.0
2016-Jun-16 17:32N 40°39' W 074°03'0 0.0
2016-Jun-16 16:33N 40°39' W 074°03'0 0.0
2016-Jun-16 15:32N 40°39' W 074°03'0 0.0
2016-Jun-16 14:33N 40°39' W 074°03'0 0.0
2016-Jun-16 13:29N 40°39' W 074°03'0 0.1
2016-Jun-16 12:32N 40°39' W 074°03'0 0.2
2016-Jun-16 11:33N 40°39' W 074°03'0 0.0
2016-Jun-16 10:33N 40°39' W 074°03'0 0.0
2016-Jun-16 09:32N 40°39' W 074°03'0 0.0
2016-Jun-16 08:32N 40°39' W 074°03'0 0.0
2016-Jun-16 07:32N 40°39' W 074°03'0 0.2
2016-Jun-16 06:32N 40°39' W 074°03'0 0.0
2016-Jun-16 05:32N 40°39' W 074°03'0 0.0
2016-Jun-16 04:32N 40°39' W 074°03'0 0.0
2016-Jun-16 03:32N 40°39' W 074°03'0 0.1
2016-Jun-16 02:32N 40°39' W 074°03'0 0.1
2016-Jun-16 01:32N 40°39' W 074°03'0 0.2
2016-Jun-16 00:32N 40°39' W 074°03'0 0.1
2016-Jun-15 23:32N 40°39' W 074°03'0 0.0
2016-Jun-15 22:32N 40°39' W 074°03'0 0.0
2016-Jun-15 21:32N 40°39' W 074°03'0 0.0
2016-Jun-15 20:32N 40°39' W 074°03'0 0.1
2016-Jun-15 19:32N 40°39' W 074°03'0 0.0
2016-Jun-15 18:32N 40°39' W 074°03'0 0.2
2016-Jun-15 17:32N 40°39' W 074°03'0 0.0
2016-Jun-15 16:32N 40°39' W 074°03'0 0.0
2016-Jun-15 15:32N 40°39' W 074°03'0 0.0
2016-Jun-15 14:32N 40°39' W 074°03'0 0.0
2016-Jun-15 13:32N 40°39' W 074°03'0 0.0
2016-Jun-15 12:32N 40°39' W 074°03'0 0.1
2016-Jun-15 11:32N 40°39' W 074°03'0 0.2
2016-Jun-15 10:32N 40°39' W 074°03'0 0.0
2016-Jun-15 09:32N 40°39' W 074°03'0 0.0
2016-Jun-15 08:32N 40°39' W 074°03'0 0.0
2016-Jun-15 07:32N 40°39' W 074°03'0 0.1
2016-Jun-15 06:32N 40°39' W 074°03'0 0.2
2016-Jun-15 05:32N 40°39' W 074°03'0 0.0
2016-Jun-15 04:32N 40°39' W 074°03'0 0.0
2016-Jun-15 03:32N 40°39' W 074°03'0 0.0
2016-Jun-15 02:32N 40°39' W 074°03'0 0.0
2016-Jun-15 01:32N 40°39' W 074°03'0 0.0
2016-Jun-15 00:32N 40°39' W 074°03'0 0.1
2016-Jun-14 23:32N 40°39' W 074°03'  
Track history (hours):
 
Tides and Currents Weather Stations Pressure Air Temp Water Temp Dewpoint Dewpoint Depression Visibility Wind Speed Wind Dir Waves Ship Positions

Osg Courageous

Owner: OSG Ship Management, Inc, Tampa, FL. More information available from US FCC via Universal Licensing System and Coast Guard Vessel Documentation Center.

Last reported at 2016-Jun-24 22:33 UTC. Time now 2016-Jun-25 03:33 UTC.
Position N 30°59' W 080°34'.

Length 187 m; draft 7 m.

Type: Tanker. MMSI: 367481310.

Date/timePositionNaut miles runAvg speedWind from/ knotsBaromVisibWave heightAir tempDewpointWater temp
2016-Jun-24 22:33N 30°59' W 080°34'11 9.8
2016-Jun-24 21:27N 31°09' W 080°28'19 9.8
2016-Jun-24 19:33N 31°25' W 080°18'1510.6
2016-Jun-24 18:10N 31°38' W 080°09'610.7
2016-Jun-24 17:33N 31°43' W 080°05'1110.5
2016-Jun-24 16:32N 31°52' W 079°58'51 1.6
2016-Jun-23 09:30N 32°42' W 079°47'9 9.9
2016-Jun-23 08:33N 32°39' W 079°36'1210.2
2016-Jun-23 07:24N 32°43' W 079°23'1910.4
2016-Jun-23 05:32N 32°52' W 079°03'  
2016-Jun-20 05:33N 37°02' W 074°47'11210.2
2016-Jun-19 18:32N 38°53' W 075°07'8 7.6
2016-Jun-19 17:31N 38°59' W 075°13'0 0.0
2016-Jun-19 16:31N 38°59' W 075°13'0 0.1
2016-Jun-19 13:28N 38°60' W 075°13'0 0.0
2016-Jun-19 12:13N 38°60' W 075°13'0 0.0
2016-Jun-19 11:31N 38°60' W 075°13'0 0.0
2016-Jun-19 10:28N 38°60' W 075°13'0 0.1
2016-Jun-19 09:31N 38°60' W 075°13'0 0.1
2016-Jun-19 08:31N 38°59' W 075°13'0 0.1
2016-Jun-19 07:31N 38°59' W 075°13'0 0.0
2016-Jun-19 06:28N 38°59' W 075°13'0 0.0
2016-Jun-19 05:31N 38°59' W 075°13'0 0.0
2016-Jun-19 04:31N 38°59' W 075°13'0 0.0
2016-Jun-19 03:31N 38°59' W 075°13'0 0.2
2016-Jun-19 02:31N 38°60' W 075°13'0 0.1
2016-Jun-19 01:31N 38°60' W 075°13'0 0.0
2016-Jun-19 00:28N 38°60' W 075°13'0 0.0
2016-Jun-18 23:31N 38°60' W 075°13'0 0.0
2016-Jun-18 22:28N 38°60' W 075°13'0 0.0
2016-Jun-18 21:25N 38°60' W 075°13'0 0.0
2016-Jun-18 20:31N 38°60' W 075°13'0 0.2
2016-Jun-18 19:28N 38°59' W 075°13'0 0.0
2016-Jun-18 18:31N 38°59' W 075°13'0 0.0
2016-Jun-18 17:34N 38°59' W 075°13'0 0.0
2016-Jun-18 16:31N 38°59' W 075°13'0 0.0
2016-Jun-18 15:31N 38°59' W 075°13'0 0.1
2016-Jun-18 14:31N 38°59' W 075°13'0 0.1
2016-Jun-18 13:31N 38°60' W 075°13'0 0.0
2016-Jun-18 12:34N 38°60' W 075°13'0 0.0
2016-Jun-18 11:33N 38°60' W 075°13'0 0.0
2016-Jun-18 10:31N 38°60' W 075°13'0 0.1
2016-Jun-18 09:31N 38°60' W 075°13'0 0.1
2016-Jun-18 08:09N 38°59' W 075°13'0 0.0
2016-Jun-18 07:33N 38°59' W 075°13'0 0.0
2016-Jun-18 06:31N 38°59' W 075°13'4 3.8
2016-Jun-18 05:33N 38°56' W 075°11'9 8.7
2016-Jun-18 04:34N 38°49' W 075°04'8 7.9
2016-Jun-18 03:33N 38°48' W 074°54'9 9.5
2016-Jun-18 02:34N 38°48' W 074°42'9 9.2
2016-Jun-18 01:34N 38°52' W 074°31'1010.4
2016-Jun-18 00:33N 39°01' W 074°23'2110.4
2016-Jun-17 22:30N 39°18' W 074°08'1110.4
2016-Jun-17 21:24N 39°29' W 074°02'910.5
2016-Jun-17 20:34N 39°37' W 073°58'1010.2
2016-Jun-17 19:34N 39°47' W 073°53'1110.3
2016-Jun-17 18:31N 39°57' W 073°52'2410.3
2016-Jun-17 16:14N 40°21' W 073°50'6 8.6
2016-Jun-17 15:33N 40°24' W 073°56'0 0.0
2016-Jun-17 11:16N 40°24' W 073°56'0 0.0
2016-Jun-17 10:16N 40°24' W 073°56'0 0.0
2016-Jun-17 09:22N 40°24' W 073°56'0 0.0
2016-Jun-17 08:31N 40°24' W 073°56'0 0.0
2016-Jun-17 06:19N 40°24' W 073°56'0 0.0
2016-Jun-17 05:31N 40°24' W 073°56'0 0.0
2016-Jun-17 04:16N 40°24' W 073°56'0 0.0
2016-Jun-16 23:33N 40°24' W 073°56'5 1.9
2016-Jun-16 21:09N 40°29' W 073°54'5 8.7
2016-Jun-16 20:33N 40°31' W 074°00'8 7.7
2016-Jun-16 19:33N 40°39' W 074°03'0 0.2
2016-Jun-16 18:32N 40°39' W 074°03'0 0.0
2016-Jun-16 17:32N 40°39' W 074°03'0 0.0
2016-Jun-16 16:33N 40°39' W 074°03'0 0.0
2016-Jun-16 15:32N 40°39' W 074°03'0 0.0
2016-Jun-16 14:33N 40°39' W 074°03'0 0.0
2016-Jun-16 13:29N 40°39' W 074°03'0 0.1
2016-Jun-16 12:32N 40°39' W 074°03'0 0.2
2016-Jun-16 11:33N 40°39' W 074°03'0 0.0
2016-Jun-16 10:33N 40°39' W 074°03'0 0.0
2016-Jun-16 09:32N 40°39' W 074°03'0 0.0
2016-Jun-16 08:32N 40°39' W 074°03'0 0.0
2016-Jun-16 07:32N 40°39' W 074°03'0 0.2
2016-Jun-16 06:32N 40°39' W 074°03'0 0.0
2016-Jun-16 05:32N 40°39' W 074°03'0 0.0
2016-Jun-16 04:32N 40°39' W 074°03'0 0.0
2016-Jun-16 03:32N 40°39' W 074°03'0 0.1
2016-Jun-16 02:32N 40°39' W 074°03'0 0.1
2016-Jun-16 01:32N 40°39' W 074°03'0 0.2
2016-Jun-16 00:32N 40°39' W 074°03'0 0.1
2016-Jun-15 23:32N 40°39' W 074°03'0 0.0
2016-Jun-15 22:32N 40°39' W 074°03'0 0.0
2016-Jun-15 21:32N 40°39' W 074°03'0 0.0
2016-Jun-15 20:32N 40°39' W 074°03'0 0.1
2016-Jun-15 19:32N 40°39' W 074°03'0 0.0
2016-Jun-15 18:32N 40°39' W 074°03'0 0.2
2016-Jun-15 17:32N 40°39' W 074°03'0 0.0
2016-Jun-15 16:32N 40°39' W 074°03'0 0.0
2016-Jun-15 15:32N 40°39' W 074°03'0 0.0
2016-Jun-15 14:32N 40°39' W 074°03'0 0.0
2016-Jun-15 13:32N 40°39' W 074°03'0 0.0
2016-Jun-15 12:32N 40°39' W 074°03'0 0.1
2016-Jun-15 11:32N 40°39' W 074°03'0 0.2
2016-Jun-15 10:32N 40°39' W 074°03'0 0.0
2016-Jun-15 09:32N 40°39' W 074°03'0 0.0
2016-Jun-15 08:32N 40°39' W 074°03'0 0.0
2016-Jun-15 07:32N 40°39' W 074°03'0 0.1
2016-Jun-15 06:32N 40°39' W 074°03'0 0.2
2016-Jun-15 05:32N 40°39' W 074°03'0 0.0
2016-Jun-15 04:32N 40°39' W 074°03'0 0.0
2016-Jun-15 03:32N 40°39' W 074°03'0 0.0
2016-Jun-15 02:32N 40°39' W 074°03'0 0.0
2016-Jun-15 01:32N 40°39' W 074°03'0 0.0
2016-Jun-15 00:32N 40°39' W 074°03'0 0.1
2016-Jun-14 23:32N 40°39' W 074°03'  

Dump ship's entire track history